Time;durP1;ratioP1;P1;durP2;ratioP2;P2;SDS_P1;SDS_P2;PMS_P1;PMS_P2;Temp;Humidity;BMP_temperature;BMP_pressure;BME280_temperature;BME280_humidity;BME280_pressure;Samples;Min_cycle;Max_cycle;Signal;HPM_P1;HPM_P2
2023/01/10 00:00:35;;;;;;;4.13;3.00;;;;;;;2.65;100.00;97885.28;4227860;27;20188;-72
2023/01/10 00:02:36;;;;;;;5.63;3.30;;;;;;;2.60;100.00;97875.38;4226287;27;20708;-72
2023/01/10 00:04:36;;;;;;;6.43;3.45;;;;;;;2.59;100.00;97883.91;4224473;27;20039;-72
2023/01/10 00:06:37;;;;;;;5.22;3.05;;;;;;;2.60;100.00;97883.56;4229685;27;20039;-72
2023/01/10 00:08:37;;;;;;;6.10;3.30;;;;;;;2.61;100.00;97889.84;4227224;27;20044;-72
2023/01/10 00:10:37;;;;;;;5.43;3.17;;;;;;;2.65;100.00;97888.81;4222083;27;20729;-72
2023/01/10 00:14:57;;;;;;;7.40;3.55;;;;;;;2.77;100.00;97885.28;4227799;27;20046;-72
2023/01/10 00:16:57;;;;;;;5.40;3.53;;;;;;;2.90;100.00;97897.03;4226673;27;20402;-72
2023/01/10 00:18:57;;;;;;;6.47;3.53;;;;;;;3.03;100.00;97896.66;4224484;27;20422;-72
2023/01/10 00:20:58;;;;;;;8.38;4.20;;;;;;;3.09;100.00;97905.44;4224314;27;20046;-72
2023/01/10 00:22:59;;;;;;;4.88;3.50;;;;;;;3.07;100.00;97916.72;4226261;27;20056;-72
2023/01/10 00:25:00;;;;;;;6.90;4.10;;;;;;;3.09;100.00;97917.19;4226321;27;20067;-72
2023/01/10 00:27:01;;;;;;;10.05;3.78;;;;;;;3.07;100.00;97910.47;4227532;27;20043;-72
2023/01/10 00:29:02;;;;;;;5.88;3.80;;;;;;;3.07;100.00;97916.72;4226192;27;20104;-72
2023/01/10 00:31:07;;;;;;;7.28;4.07;;;;;;;3.04;100.00;97920.13;4226482;27;20320;-72
2023/01/10 00:33:08;;;;;;;7.55;3.28;;;;;;;3.09;100.00;97922.66;4221921;27;20118;-72
2023/01/10 00:35:10;;;;;;;5.63;3.83;;;;;;;3.06;100.00;97919.78;4222695;27;20369;-72
2023/01/10 00:37:10;;;;;;;8.70;3.47;;;;;;;3.02;100.00;97919.69;4225897;27;20059;-72
2023/01/10 00:39:10;;;;;;;8.27;3.80;;;;;;;3.03;100.00;97926.72;4224904;27;20042;-72
2023/01/10 00:43:55;;;;;;;5.57;3.20;;;;;;;2.99;100.00;97920.38;4227097;27;20042;-72
2023/01/10 00:45:50;;;;;;;4.82;3.10;;;;;;;2.91;100.00;97932.22;4221324;27;20559;-72
2023/01/10 00:47:51;;;;;;;6.78;3.17;;;;;;;2.83;100.00;97921.41;4221510;27;20039;-72
2023/01/10 00:49:51;;;;;;;5.90;3.65;;;;;;;2.76;100.00;97925.47;4225282;27;20042;-72
2023/01/10 00:51:52;;;;;;;4.88;3.20;;;;;;;2.71;100.00;97935.81;4233640;27;20046;-72
2023/01/10 00:53:52;;;;;;;6.25;3.35;;;;;;;2.70;100.00;97936.97;4226994;27;20430;-72
2023/01/10 00:55:53;;;;;;;6.60;3.25;;;;;;;2.67;100.00;97934.91;4236535;27;20046;-72
2023/01/10 00:57:54;;;;;;;5.45;3.45;;;;;;;2.62;100.00;97932.38;4236756;27;20527;-72
2023/01/10 00:59:54;;;;;;;4.20;2.92;;;;;;;2.58;100.00;97950.59;4223910;27;20035;-72
2023/01/10 01:01:55;;;;;;;4.03;3.00;;;;;;;2.52;100.00;97942.63;4224454;27;20792;-72
2023/01/10 01:03:55;;;;;;;8.23;4.25;;;;;;;2.49;100.00;97950.69;4222157;27;20377;-72
2023/01/10 01:05:55;;;;;;;8.32;3.80;;;;;;;2.48;100.00;97965.47;4229587;27;20515;-72
2023/01/10 01:07:56;;;;;;;5.53;3.60;;;;;;;2.45;100.00;97966.94;4236913;27;20048;-72
2023/01/10 01:12:15;;;;;;;8.90;3.72;;;;;;;2.47;100.00;97972.06;4220682;27;20042;-72
2023/01/10 01:14:15;;;;;;;6.72;3.40;;;;;;;2.48;100.00;97979.13;4230158;27;20366;-72
2023/01/10 01:16:16;;;;;;;6.55;3.40;;;;;;;2.48;100.00;97992.78;4234604;27;20133;-72
2023/01/10 01:18:20;;;;;;;6.00;4.47;;;;;;;2.46;100.00;97990.38;4235394;27;20126;-72
2023/01/10 01:20:21;;;;;;;5.85;3.28;;;;;;;2.48;100.00;97988.13;4235451;27;20035;-72
2023/01/10 01:22:21;;;;;;;5.35;3.70;;;;;;;2.46;100.00;98001.31;4235980;27;20085;-72
2023/01/10 01:24:23;;;;;;;4.22;2.92;;;;;;;2.42;100.00;98000.41;4229770;27;20039;-72
2023/01/10 01:26:25;;;;;;;;;;;;;;;2.44;100.00;98010.97;4226024;27;20297;-72
2023/01/10 01:28:26;;;;;;;6.80;3.35;;;;;;;2.41;100.00;98014.38;4232651;27;19979;-72
2023/01/10 01:30:26;;;;;;;5.80;3.55;;;;;;;2.44;100.00;98016.44;4226106;27;20047;-72
2023/01/10 01:32:26;;;;;;;5.10;3.13;;;;;;;2.41;100.00;98020.66;4219363;27;20043;-72
2023/01/10 01:34:27;;;;;;;4.95;3.08;;;;;;;2.45;100.00;98020.75;4232152;27;20616;-72
2023/01/10 01:36:27;;;;;;;6.65;3.47;;;;;;;2.41;100.00;98028.03;4221884;27;20468;-72
2023/01/10 01:38:27;;;;;;;7.15;3.22;;;;;;;2.40;100.00;98035.44;4220529;27;20383;-72
2023/01/10 01:40:28;;;;;;;6.40;3.42;;;;;;;2.35;100.00;98029.38;4224687;27;20043;-72
2023/01/10 01:42:33;;;;;;;5.22;2.90;;;;;;;2.37;100.00;98032.56;4223139;27;20052;-72
2023/01/10 01:44:38;;;;;;;5.68;3.30;;;;;;;2.37;100.00;98032.56;4227310;27;20039;-72
2023/01/10 01:46:39;;;;;;;5.00;3.03;;;;;;;2.39;100.00;98033.00;4219747;27;20644;-72
2023/01/10 01:48:41;;;;;;;5.93;2.65;;;;;;;2.40;100.00;98049.09;4220093;27;20084;-72
2023/01/10 01:51:06;;;;;;;5.35;3.13;;;;;;;2.39;100.00;98049.41;4228406;27;20047;-72
2023/01/10 01:53:16;;;;;;;5.65;2.88;;;;;;;2.31;100.00;98050.28;4231280;27;20149;-72
2023/01/10 01:55:16;;;;;;;4.47;2.63;;;;;;;2.29;100.00;98055.28;4226305;27;20051;-72
2023/01/10 01:57:22;;;;;;;4.63;2.70;;;;;;;2.26;100.00;98070.41;4235399;27;20132;-72
2023/01/10 01:59:28;;;;;;;4.18;3.20;;;;;;;2.20;100.00;98072.50;4235702;27;20193;-72
2023/01/10 02:01:29;;;;;;;6.28;2.72;;;;;;;2.20;100.00;98086.16;4233221;27;20047;-72
2023/01/10 02:03:30;;;;;;;6.10;3.17;;;;;;;2.15;100.00;98086.38;4234300;27;20130;-72
2023/01/10 02:05:35;;;;;;;4.47;3.08;;;;;;;2.08;100.00;98083.38;4221376;27;20106;-72
2023/01/10 02:07:39;;;;;;;5.28;2.92;;;;;;;2.01;100.00;98088.56;4219545;27;20479;-72
2023/01/10 02:09:45;;;;;;;5.65;3.00;;;;;;;1.95;100.00;98081.69;4226288;27;20122;-72
2023/01/10 02:11:45;;;;;;;5.00;3.50;;;;;;;1.94;100.00;98086.34;4218504;27;20036;-72
2023/01/10 02:13:47;;;;;;;7.55;3.15;;;;;;;1.95;100.00;98087.13;4219357;27;20143;-72
2023/01/10 02:15:48;;;;;;;6.10;3.15;;;;;;;2.01;100.00;98098.66;4219828;27;20495;-72
2023/01/10 02:17:50;;;;;;;6.15;3.65;;;;;;;2.04;100.00;98100.72;4219924;27;20049;-72
2023/01/10 02:19:56;;;;;;;5.78;3.10;;;;;;;2.10;100.00;98094.75;4221510;27;20036;-72
2023/01/10 02:22:19;;;;;;;5.72;3.25;;;;;;;2.13;100.00;98088.63;4230952;27;20546;-72
2023/01/10 02:24:32;;;;;;;;;;;;;;;2.17;100.00;98099.69;4230584;27;20266;-72
2023/01/10 02:26:57;;;;;;;5.80;2.70;;;;;;;2.21;100.00;98112.31;4219323;27;20383;-72
2023/01/10 02:29:07;;;;;;;5.35;2.90;;;;;;;2.21;100.00;98112.31;4219497;27;20032;-72
2023/01/10 02:31:29;;;;;;;4.60;3.10;;;;;;;2.21;100.00;98117.78;4230690;27;20051;-72
2023/01/10 02:33:36;;;;;;;3.35;2.40;;;;;;;2.22;100.00;98116.66;4225228;27;20449;-72
2023/01/10 02:35:55;;;;;;;4.53;2.75;;;;;;;2.28;100.00;98120.00;4219122;27;20044;-72
2023/01/10 02:38:04;;;;;;;4.13;2.30;;;;;;;2.34;100.00;98123.34;4218805;27;20048;-72
2023/01/10 02:40:26;;;;;;;4.35;2.50;;;;;;;2.36;100.00;98129.25;4222246;27;20410;-72
2023/01/10 02:42:45;;;;;;;4.13;2.53;;;;;;;2.40;100.00;98130.16;4218464;27;20054;-72
2023/01/10 02:44:52;;;;;;;4.18;2.40;;;;;;;2.43;100.00;98133.06;4226800;27;20396;-72
2023/01/10 02:46:55;;;;;;;5.18;2.83;;;;;;;2.44;100.00;98134.66;4232552;27;20087;-72
2023/01/10 02:48:56;;;;;;;4.28;2.63;;;;;;;2.56;100.00;98138.56;4219228;27;20062;-72
2023/01/10 02:51:02;;;;;;;3.85;2.55;;;;;;;2.61;100.00;98144.63;4226174;27;20289;-72
2023/01/10 02:53:07;;;;;;;3.08;2.13;;;;;;;2.63;100.00;98153.28;4218026;27;20047;-72
2023/01/10 02:55:08;;;;;;;4.95;2.45;;;;;;;2.66;100.00;98149.13;4218833;27;20104;-72
2023/01/10 02:57:14;;;;;;;4.05;2.40;;;;;;;2.74;100.00;98151.78;4220018;27;20305;-72
2023/01/10 02:59:26;;;;;;;3.92;2.05;;;;;;;2.78;100.00;98140.97;4219384;27;20058;-72
2023/01/10 03:01:42;;;;;;;2.85;2.10;;;;;;;2.84;100.00;98158.75;4231889;27;20039;-72
2023/01/10 03:03:48;;;;;;;3.33;2.00;;;;;;;2.93;100.00;98158.69;4228382;27;20090;-72
2023/01/10 03:05:54;;;;;;;3.28;2.50;;;;;;;2.97;100.00;98165.06;4219534;27;20050;-72
2023/01/10 03:08:07;;;;;;;5.95;2.75;;;;;;;2.97;100.00;98171.31;4219359;27;20569;-72
2023/01/10 03:10:14;;;;;;;3.85;2.30;;;;;;;2.97;100.00;98174.06;4222904;27;20047;-72
2023/01/10 03:12:37;;;;;;;5.80;2.08;;;;;;;3.03;100.00;98185.59;4224765;27;20116;-72
2023/01/10 03:14:40;;;;;;;3.08;2.15;;;;;;;3.06;100.00;98190.38;4202174;27;20046;-72
2023/01/10 03:16:46;;;;;;;4.32;3.20;;;;;;;3.02;100.00;98182.06;4219789;27;20075;-72
2023/01/10 03:18:50;;;;;;;7.53;2.28;;;;;;;3.03;100.00;98185.59;4219369;27;20380;-72
2023/01/10 03:20:52;;;;;;;4.05;2.17;;;;;;;3.07;100.00;98195.53;4227043;27;20471;-72
2023/01/10 03:22:54;;;;;;;2.17;1.80;;;;;;;3.13;100.00;98192.56;4233561;27;20031;-72
2023/01/10 03:24:57;;;;;;;;;;;;;;;3.18;100.00;98208.78;4219649;27;20121;-72
2023/01/10 03:27:13;;;;;;;3.10;1.83;;;;;;;3.18;100.00;98208.78;4219099;27;19915;-72
2023/01/10 03:29:20;;;;;;;2.78;1.98;;;;;;;3.20;100.00;98212.75;4219498;27;20421;-73
2023/01/10 03:31:44;;;;;;;4.03;1.85;;;;;;;3.23;100.00;98217.56;4225450;27;20173;-72
2023/01/10 03:33:47;;;;;;;3.33;1.80;;;;;;;3.22;100.00;98235.09;4223111;27;20043;-72
2023/01/10 03:35:53;;;;;;;3.92;2.03;;;;;;;3.18;100.00;98234.19;4234886;27;20500;-72
2023/01/10 03:38:01;;;;;;;2.33;1.88;;;;;;;3.19;100.00;98243.19;4232616;27;20158;-72
2023/01/10 03:40:39;;;;;;;3.45;1.80;;;;;;;3.17;100.00;98240.78;4223423;27;20051;-72
2023/01/10 03:45:32;;;;;;;3.25;2.08;;;;;;;3.18;100.00;98241.59;4184392;28;20051;-73
2023/01/10 03:47:36;;;;;;;4.53;2.40;;;;;;;3.22;100.00;98248.75;4223696;27;20470;-72
2023/01/10 03:49:40;;;;;;;4.07;2.67;;;;;;;3.21;100.00;98255.38;4222504;27;20054;-72
2023/01/10 03:51:42;;;;;;;4.20;2.20;;;;;;;3.25;100.00;98264.50;4222632;27;20043;-72
2023/01/10 03:53:43;;;;;;;3.65;2.50;;;;;;;3.28;100.00;98258.38;4225905;27;20424;-73
2023/01/10 03:55:44;;;;;;;5.25;3.08;;;;;;;3.35;100.00;98263.31;4237689;27;20294;-73
2023/01/10 03:57:45;;;;;;;5.97;2.83;;;;;;;3.33;100.00;98258.16;4237662;27;20039;-73
2023/01/10 03:59:48;;;;;;;5.72;2.90;;;;;;;3.35;100.00;98260.56;4225332;27;20541;-73
2023/01/10 04:01:48;;;;;;;4.43;2.80;;;;;;;3.51;100.00;98267.00;4236292;27;20841;-73
2023/01/10 04:03:48;;;;;;;4.93;3.10;;;;;;;3.47;100.00;98274.28;4230380;27;20455;-73
2023/01/10 04:05:49;;;;;;;5.13;3.28;;;;;;;3.44;100.00;98274.94;4222268;27;20044;-73
2023/01/10 04:07:49;;;;;;;5.05;3.38;;;;;;;3.54;100.00;98285.47;4222062;27;20479;-73
2023/01/10 04:09:50;;;;;;;4.63;2.50;;;;;;;3.60;100.00;98295.09;4229628;27;20309;-73
2023/01/10 04:11:50;;;;;;;3.90;2.15;;;;;;;3.61;100.00;98304.09;4224291;27;20123;-72
2023/01/10 04:13:50;;;;;;;4.80;2.53;;;;;;;3.61;100.00;98302.16;4226426;27;20027;-73
2023/01/10 04:15:51;;;;;;;4.32;2.55;;;;;;;3.61;100.00;98296.69;4229543;27;20107;-73
2023/01/10 04:17:51;;;;;;;6.82;2.75;;;;;;;3.66;100.00;98296.47;4221539;27;20051;-72
2023/01/10 04:19:51;;;;;;;3.58;2.22;;;;;;;3.59;100.00;98300.91;4225660;27;20093;-73
2023/01/10 04:21:52;;;;;;;4.85;2.30;;;;;;;3.53;100.00;98305.75;4236101;27;20039;-72
2023/01/10 04:23:52;;;;;;;3.85;2.55;;;;;;;3.45;100.00;98305.84;4229814;27;20048;-72
2023/01/10 04:25:53;;;;;;;4.72;2.25;;;;;;;3.53;100.00;98311.22;4233703;27;20538;-73
2023/01/10 04:27:53;;;;;;;3.33;2.70;;;;;;;3.45;100.00;98312.09;4235618;27;20542;-73
2023/01/10 04:29:53;;;;;;;3.65;2.60;;;;;;;3.41;100.00;98313.13;4235859;27;20039;-73
2023/01/10 04:31:54;;;;;;;3.35;2.58;;;;;;;3.34;100.00;98316.41;4233011;27;20043;-73
2023/01/10 04:33:54;;;;;;;6.25;2.60;;;;;;;3.27;100.00;98322.41;4232548;27;20043;-72
2023/01/10 04:35:55;;;;;;;3.58;2.30;;;;;;;3.26;100.00;98317.25;4221463;27;20402;-73
2023/01/10 04:37:56;;;;;;;4.70;2.13;;;;;;;3.24;100.00;98327.75;4221390;27;20462;-72
2023/01/10 04:39:56;;;;;;;6.50;3.00;;;;;;;3.17;100.00;98324.72;4222496;27;20058;-73
2023/01/10 04:41:56;;;;;;;3.95;2.50;;;;;;;3.18;100.00;98337.25;4225710;27;20047;-73
2023/01/10 04:43:57;;;;;;;4.85;2.45;;;;;;;3.16;100.00;98342.28;4234116;27;20047;-73
2023/01/10 04:45:57;;;;;;;4.55;2.40;;;;;;;3.15;100.00;98354.34;4234750;27;20065;-73
2023/01/10 04:47:59;;;;;;;4.43;2.63;;;;;;;3.22;100.00;98346.38;4236467;27;20043;-73
2023/01/10 04:49:59;;;;;;;5.15;2.45;;;;;;;3.21;100.00;98353.00;4236262;27;20105;-72
2023/01/10 04:52:00;;;;;;;5.68;2.67;;;;;;;3.16;100.00;98354.00;4235967;27;20359;-72
2023/01/10 04:54:00;;;;;;;7.35;2.72;;;;;;;3.12;100.00;98350.31;4227567;27;20382;-72
2023/01/10 04:56:03;;;;;;;4.25;2.90;;;;;;;3.11;100.00;98356.94;4220554;27;20628;-72
2023/01/10 04:58:04;;;;;;;;;;;;;;;3.01;100.00;98374.53;4220432;27;20348;-73
2023/01/10 05:00:05;;;;;;;4.10;2.50;;;;;;;2.96;100.00;98373.91;4219861;27;19924;-73
2023/01/10 05:02:05;;;;;;;5.78;2.78;;;;;;;2.99;100.00;98376.78;4221314;27;20023;-73
2023/01/10 05:04:06;;;;;;;6.32;2.65;;;;;;;2.97;100.00;98380.97;4225916;27;20441;-73
2023/01/10 05:06:07;;;;;;;5.75;2.63;;;;;;;2.83;100.00;98388.63;4224899;27;20115;-72
2023/01/10 05:08:07;;;;;;;6.57;3.45;;;;;;;2.83;100.00;98396.81;4232063;27;20031;-72
2023/01/10 05:10:08;;;;;;;7.25;3.72;;;;;;;2.74;100.00;98400.38;4219593;27;20504;-72
2023/01/10 05:12:08;;;;;;;5.68;3.65;;;;;;;2.71;100.00;98406.47;4222774;27;20019;-72
2023/01/10 05:14:09;;;;;;;6.50;3.88;;;;;;;2.69;100.00;98410.69;4225145;27;20585;-72
2023/01/10 05:16:09;;;;;;;7.28;3.47;;;;;;;2.72;100.00;98415.47;4221442;27;20351;-73
2023/01/10 05:18:10;;;;;;;9.93;5.18;;;;;;;2.67;100.00;98424.69;4221792;27;20061;-72
2023/01/10 05:20:12;;;;;;;9.10;5.45;;;;;;;2.71;100.00;98424.81;4221344;27;20092;-72
2023/01/10 05:22:12;;;;;;;13.63;6.57;;;;;;;2.73;100.00;98431.56;4229956;27;20114;-72
2023/01/10 05:24:13;;;;;;;10.88;4.53;;;;;;;2.71;100.00;98435.75;4227677;27;20140;-72
2023/01/10 05:26:16;;;;;;;6.85;4.45;;;;;;;2.66;100.00;98434.00;4222164;27;20220;-72
2023/01/10 05:28:17;;;;;;;5.43;3.70;;;;;;;2.66;100.00;98438.66;4221819;27;20350;-72
2023/01/10 05:30:17;;;;;;;7.30;4.57;;;;;;;2.61;100.00;98438.84;4216734;27;20641;-72
2023/01/10 05:32:18;;;;;;;7.68;5.10;;;;;;;2.62;100.00;98438.50;4225121;27;20118;-72
2023/01/10 05:34:18;;;;;;;7.07;5.80;;;;;;;2.56;100.00;98439.00;4221855;27;20093;-72
2023/01/10 05:36:19;;;;;;;10.95;4.50;;;;;;;2.49;100.00;98445.78;4226272;27;20053;-72
2023/01/10 05:38:19;;;;;;;6.57;4.65;;;;;;;2.49;100.00;98439.53;4222202;27;20033;-72
2023/01/10 05:40:19;;;;;;;7.95;4.90;;;;;;;2.53;100.00;98452.19;4224526;27;20035;-72
2023/01/10 05:42:20;;;;;;;11.75;5.38;;;;;;;2.47;100.00;98460.88;4223668;27;20379;-73
2023/01/10 05:44:20;;;;;;;9.40;5.35;;;;;;;2.49;100.00;98453.19;4225202;27;20047;-72
2023/01/10 05:46:21;;;;;;;8.25;5.13;;;;;;;2.47;100.00;98463.59;4224902;27;20135;-72
2023/01/10 05:48:21;;;;;;;5.20;3.25;;;;;;;2.47;100.00;98464.41;4219024;27;20060;-72
2023/01/10 05:50:21;;;;;;;9.73;3.35;;;;;;;2.46;100.00;98462.00;4217881;27;20100;-72
2023/01/10 05:52:22;;;;;;;8.55;4.07;;;;;;;2.41;100.00;98464.94;4223112;27;20391;-72
2023/01/10 05:54:22;;;;;;;4.80;3.58;;;;;;;2.35;100.00;98471.66;4218583;27;20043;-73
2023/01/10 05:56:23;;;;;;;5.97;3.92;;;;;;;2.32;100.00;98473.13;4168254;27;20036;-73
2023/01/10 05:58:24;;;;;;;6.97;4.78;;;;;;;2.23;100.00;98473.16;4223229;27;20048;-72
2023/01/10 06:00:25;;;;;;;7.63;3.97;;;;;;;2.21;100.00;98480.84;4219002;27;20139;-72
2023/01/10 06:02:25;;;;;;;8.73;4.32;;;;;;;2.15;100.00;98479.41;4225095;27;20042;-72
2023/01/10 06:04:26;;;;;;;7.57;4.10;;;;;;;2.15;100.00;98487.59;4220336;27;20498;-72
2023/01/10 06:06:26;;;;;;;8.95;5.20;;;;;;;2.11;100.00;98485.81;4225055;27;20035;-72
2023/01/10 06:08:26;;;;;;;7.82;4.38;;;;;;;2.05;100.00;98490.63;4220578;27;20043;-73
2023/01/10 06:10:27;;;;;;;6.68;4.05;;;;;;;2.00;100.00;98490.81;4221283;27;20047;-72
2023/01/10 06:12:27;;;;;;;4.57;2.80;;;;;;;2.00;100.00;98493.53;4222381;27;20051;-72
2023/01/10 06:14:28;;;;;;;6.00;3.67;;;;;;;2.02;100.00;98493.22;4234783;27;20051;-72
2023/01/10 06:16:28;;;;;;;9.32;3.20;;;;;;;2.03;100.00;98497.56;4222398;27;20456;-72
2023/01/10 06:18:28;;;;;;;8.43;3.67;;;;;;;1.97;100.00;98497.69;4230071;27;20514;-72
2023/01/10 06:20:29;;;;;;;7.88;2.97;;;;;;;1.94;100.00;98505.75;4224326;27;20772;-72
2023/01/10 06:22:29;;;;;;;5.93;3.25;;;;;;;2.00;100.00;98507.19;4216776;27;20409;-72
2023/01/10 06:24:29;;;;;;;5.30;3.00;;;;;;;1.96;100.00;98517.13;4222953;27;20131;-72
2023/01/10 06:26:30;;;;;;;8.07;3.85;;;;;;;1.98;100.00;98520.34;4222064;27;20360;-73
2023/01/10 06:28:30;;;;;;;6.75;3.03;;;;;;;2.02;100.00;98525.97;4223378;27;20427;-72
2023/01/10 06:30:31;;;;;;;9.55;3.67;;;;;;;1.95;100.00;98527.25;4227498;27;20043;-72
2023/01/10 06:32:31;;;;;;;8.57;4.90;;;;;;;1.93;100.00;98536.88;4224830;27;20038;-72
2023/01/10 06:34:32;;;;;;;9.25;4.15;;;;;;;1.95;100.00;98546.34;4234639;27;20051;-72
2023/01/10 06:36:32;;;;;;;6.85;4.00;;;;;;;1.96;100.00;98547.94;4219525;27;20035;-72
2023/01/10 06:38:33;;;;;;;5.13;3.40;;;;;;;1.93;100.00;98555.97;4218683;27;20054;-72
2023/01/10 06:40:33;;;;;;;5.80;2.97;;;;;;;1.89;100.00;98563.97;4219495;27;20495;-72
2023/01/10 06:42:33;;;;;;;7.57;3.50;;;;;;;1.90;100.00;98562.06;4219430;27;20592;-73
2023/01/10 06:44:34;;;;;;;8.52;3.50;;;;;;;1.84;100.00;98566.09;4230141;27;20110;-73
2023/01/10 06:46:34;;;;;;;6.93;3.50;;;;;;;1.85;100.00;98576.66;4228232;27;20039;-72
2023/01/10 06:48:36;;;;;;;6.07;3.28;;;;;;;1.81;100.00;98572.94;4219418;27;20654;-72
2023/01/10 06:50:36;;;;;;;6.63;3.58;;;;;;;1.83;100.00;98584.38;4219263;27;20102;-72
2023/01/10 06:52:37;;;;;;;7.10;3.20;;;;;;;1.83;100.00;98597.22;4219087;27;20143;-72
2023/01/10 06:54:37;;;;;;;4.45;2.83;;;;;;;1.80;100.00;98593.19;4234847;27;20148;-72
2023/01/10 06:56:38;;;;;;;8.43;3.28;;;;;;;1.77;100.00;98593.81;4219870;27;20035;-72
2023/01/10 06:58:38;;;;;;;11.55;3.83;;;;;;;1.77;100.00;98609.38;4219870;27;20070;-72
2023/01/10 07:00:39;;;;;;;7.43;3.65;;;;;;;1.73;100.00;98609.19;4219130;27;20036;-72
2023/01/10 07:02:39;;;;;;;7.80;3.55;;;;;;;1.71;100.00;98610.66;4218953;27;20126;-72
2023/01/10 07:04:40;;;;;;;8.85;4.13;;;;;;;1.71;100.00;98608.72;4219304;27;20131;-72
2023/01/10 07:06:40;;;;;;;5.70;3.13;;;;;;;1.70;100.00;98620.75;4229348;27;20031;-72
2023/01/10 07:08:44;;;;;;;7.60;4.20;;;;;;;1.71;100.00;98625.09;4234921;27;20046;-72
2023/01/10 07:10:44;;;;;;;7.72;3.83;;;;;;;1.72;100.00;98625.88;4218812;27;20547;-72
2023/01/10 07:12:44;;;;;;;10.32;4.85;;;;;;;1.67;100.00;98626.84;4219021;27;20059;-73
2023/01/10 07:14:45;;;;;;;16.30;3.60;;;;;;;1.65;100.00;98634.53;4219092;27;20406;-72
2023/01/10 07:16:45;;;;;;;6.22;3.40;;;;;;;1.59;100.00;98641.25;4220476;27;20112;-72
2023/01/10 07:18:45;;;;;;;7.43;3.30;;;;;;;1.54;100.00;98635.94;4218924;27;20032;-72
2023/01/10 07:20:46;;;;;;;9.70;3.53;;;;;;;1.54;100.00;98649.56;4219041;27;20031;-72
2023/01/10 07:22:56;;;;;;;6.90;3.97;;;;;;;1.47;100.00;98660.94;4219304;27;20058;-72
2023/01/10 07:24:56;;;;;;;9.32;4.47;;;;;;;1.44;100.00;98650.66;4222390;27;20054;-72
2023/01/10 07:26:57;;;;;;;14.82;4.85;;;;;;;1.38;100.00;98652.69;4223032;27;20486;-72
2023/01/10 07:28:57;;;;;;;10.70;4.40;;;;;;;1.35;100.00;98653.34;4232185;27;20421;-72
2023/01/10 07:30:58;;;;;;;8.07;4.10;;;;;;;1.35;100.00;98664.25;4222646;27;20039;-72
2023/01/10 07:33:02;;;;;;;7.65;4.32;;;;;;;1.35;100.00;98666.16;4221686;27;20047;-72
2023/01/10 07:35:02;;;;;;;10.48;4.00;;;;;;;1.36;100.00;98675.94;4222509;27;20073;-72
2023/01/10 07:37:03;;;;;;;8.02;3.90;;;;;;;1.35;100.00;98683.31;4222682;27;20067;-72
2023/01/10 07:39:03;;;;;;;7.85;3.88;;;;;;;1.31;100.00;98687.78;4221084;27;20108;-72
2023/01/10 07:41:04;;;;;;;8.43;3.88;;;;;;;1.32;100.00;98694.03;4222648;27;20704;-72
2023/01/10 07:43:05;;;;;;;10.20;4.38;;;;;;;1.35;100.00;98696.16;4220130;28;20052;-72
2023/01/10 07:45:07;;;;;;;7.20;3.20;;;;;;;1.36;100.00;98698.56;4232884;27;20047;-72
2023/01/10 07:47:07;;;;;;;10.10;3.35;;;;;;;1.38;100.00;98701.78;4236437;27;20050;-72
2023/01/10 07:49:08;;;;;;;7.47;4.00;;;;;;;1.45;100.00;98700.53;4227618;27;20397;-72
2023/01/10 07:51:08;;;;;;;7.47;3.53;;;;;;;1.46;100.00;98702.94;4224988;27;20518;-72
2023/01/10 07:53:09;;;;;;;5.20;2.95;;;;;;;1.47;100.00;98704.56;4234610;27;20043;-72
2023/01/10 07:55:09;;;;;;;5.32;3.25;;;;;;;1.47;100.00;98706.47;4237461;27;20039;-72
2023/01/10 07:57:10;;;;;;;7.05;4.60;;;;;;;1.47;100.00;98715.47;4236889;27;20027;-72
2023/01/10 07:59:10;;;;;;;9.60;5.25;;;;;;;1.44;100.00;98709.84;4237994;27;20051;-72
2023/01/10 08:01:11;;;;;;;7.15;3.78;;;;;;;1.51;100.00;98710.19;4237138;27;20109;-72
2023/01/10 08:03:12;;;;;;;8.95;3.75;;;;;;;1.54;100.00;98720.47;4237152;27;20039;-72
2023/01/10 08:05:13;;;;;;;5.70;3.75;;;;;;;1.55;100.00;98722.88;4236361;27;20062;-72
2023/01/10 08:07:13;;;;;;;8.38;4.18;;;;;;;1.63;100.00;98724.03;4221773;27;20043;-72
2023/01/10 08:09:14;;;;;;;7.80;3.92;;;;;;;1.64;100.00;98723.72;4222262;27;20396;-72
2023/01/10 08:11:14;;;;;;;4.72;3.38;;;;;;;1.65;100.00;98728.06;4229879;27;20195;-72
2023/01/10 08:13:14;;;;;;;8.52;3.83;;;;;;;1.64;100.00;98726.47;4237264;27;20071;-72
2023/01/10 08:15:15;;;;;;;6.25;3.80;;;;;;;1.62;100.00;98727.91;4234172;27;20398;-72
2023/01/10 08:17:15;;;;;;;10.55;4.50;;;;;;;1.59;100.00;98723.06;4221739;27;20341;-72
2023/01/10 08:19:16;;;;;;;6.30;3.60;;;;;;;1.61;100.00;98731.75;4221584;27;20138;-72
2023/01/10 08:21:17;;;;;;;9.75;3.97;;;;;;;1.58;100.00;98721.47;4221470;27;20035;-72
2023/01/10 08:23:18;;;;;;;12.50;4.75;;;;;;;1.54;100.00;98723.19;4221154;27;20036;-72
2023/01/10 08:25:19;;;;;;;11.75;5.40;;;;;;;1.55;100.00;98733.00;4221168;27;20127;-72
2023/01/10 08:27:19;;;;;;;10.07;5.00;;;;;;;1.55;100.00;98735.72;4221849;27;20147;-72
2023/01/10 08:29:19;;;;;;;9.85;4.10;;;;;;;1.60;100.00;98741.03;4221647;27;20440;-72
2023/01/10 08:31:20;;;;;;;7.93;4.15;;;;;;;1.63;100.00;98743.94;4221498;27;20067;-72
2023/01/10 08:33:22;;;;;;;5.25;3.13;;;;;;;1.67;100.00;98746.88;4220859;27;20047;-72
2023/01/10 08:35:23;;;;;;;6.90;3.60;;;;;;;1.73;100.00;98748.31;4220599;27;20387;-72
2023/01/10 08:37:23;;;;;;;8.38;3.70;;;;;;;1.78;100.00;98747.41;4221764;27;20039;-72
2023/01/10 08:39:25;;;;;;;6.10;3.80;;;;;;;1.81;100.00;98750.28;4221608;27;20061;-72
2023/01/10 08:41:25;;;;;;;6.20;3.60;;;;;;;1.84;100.00;98757.88;4221319;27;20032;-72
2023/01/10 08:43:26;;;;;;;5.03;3.45;;;;;;;1.91;100.00;98754.69;4221209;27;20062;-72
2023/01/10 08:45:26;;;;;;;6.13;3.47;;;;;;;1.97;100.00;98750.69;4221388;27;20118;-72
2023/01/10 08:47:27;;;;;;;7.38;3.78;;;;;;;2.03;100.00;98748.63;4222273;27;20125;-72
2023/01/10 08:49:27;;;;;;;7.97;3.30;;;;;;;2.14;100.00;98758.94;4237132;27;20651;-72
2023/01/10 08:51:28;;;;;;;5.43;3.70;;;;;;;2.24;100.00;98757.88;4231149;27;20040;-72
2023/01/10 08:53:30;;;;;;;6.03;3.05;;;;;;;2.33;100.00;98757.91;4220513;27;20522;-72
2023/01/10 08:55:34;;;;;;;3.92;2.80;;;;;;;2.39;100.00;98762.88;4226192;27;20095;-72
2023/01/10 08:57:34;;;;;;;6.75;3.67;;;;;;;2.47;100.00;98772.22;4222058;27;20039;-72
2023/01/10 08:59:34;;;;;;;7.80;3.53;;;;;;;2.52;100.00;98770.16;4221401;27;20509;-72
2023/01/10 09:01:35;;;;;;;9.48;3.45;;;;;;;2.60;100.00;98781.41;4226966;27;20047;-72
2023/01/10 09:03:35;;;;;;;8.40;3.67;;;;;;;2.67;100.00;98788.03;4236425;27;20337;-72
2023/01/10 09:05:35;;;;;;;9.95;3.75;;;;;;;2.77;100.00;98792.38;4237391;27;20043;-72
2023/01/10 09:07:36;;;;;;;6.43;4.13;;;;;;;2.87;100.00;98796.72;4235773;27;20036;-72
2023/01/10 09:09:36;;;;;;;7.93;3.97;;;;;;;2.90;100.00;98793.38;4237182;27;20054;-72
2023/01/10 09:11:36;;;;;;;5.68;3.92;;;;;;;2.98;100.00;98801.59;4229683;27;20051;-72
2023/01/10 09:13:38;;;;;;;6.53;4.22;;;;;;;3.08;100.00;98800.47;4220220;27;20055;-72
2023/01/10 09:15:41;;;;;;;16.42;4.10;;;;;;;3.14;100.00;98801.88;4227128;27;20044;-72
2023/01/10 09:17:42;;;;;;;6.18;4.00;;;;;;;3.18;100.00;98796.59;4220599;27;20506;-72
2023/01/10 09:19:42;;;;;;;8.85;4.57;;;;;;;3.23;100.00;98797.25;4221094;27;20054;-72
2023/01/10 09:21:43;;;;;;;7.97;4.68;;;;;;;3.27;100.00;98792.72;4220580;27;20066;-72
2023/01/10 09:23:43;;;;;;;13.02;4.68;;;;;;;3.38;100.00;98782.25;4220176;27;20051;-72
2023/01/10 09:25:45;;;;;;;7.80;4.10;;;;;;;3.48;100.00;98784.69;4220578;27;20052;-72
2023/01/10 09:27:45;;;;;;;7.60;3.83;;;;;;;3.57;100.00;98801.09;4231320;27;20073;-72
2023/01/10 09:29:45;;;;;;;7.88;4.03;;;;;;;3.55;100.00;98808.78;4235687;27;20478;-72
2023/01/10 09:31:46;;;;;;;7.82;4.10;;;;;;;3.57;100.00;98812.03;4220035;27;20078;-72
2023/01/10 09:33:48;;;;;;;8.73;4.88;;;;;;;3.66;100.00;98821.84;4220372;27;20071;-72
2023/01/10 09:35:49;;;;;;;9.02;4.40;;;;;;;3.64;100.00;98817.78;4221000;27;20069;-72
2023/01/10 09:37:52;;;;;;;8.02;4.30;;;;;;;3.58;100.00;98805.44;4236409;27;20423;-72
2023/01/10 09:39:52;;;;;;;8.88;4.95;;;;;;;3.53;100.00;98797.38;4235802;27;20146;-72
2023/01/10 09:42:04;;;;;;;7.88;3.95;;;;;;;3.48;100.00;98798.38;4235862;27;20179;-72
2023/01/10 09:44:05;;;;;;;7.55;4.00;;;;;;;3.45;100.00;98801.72;4219402;27;20337;-72
2023/01/10 09:46:08;;;;;;;8.65;3.85;;;;;;;3.42;100.00;98804.31;4220309;27;20075;-72